Kanarraville, Utah
Current Conditions -  °F | °C
As of 8:53 PM on Friday 19 Dec 2014 (Local Time) from KCDC Reporting Station
Broken Clouds Broken Clouds  
Wind Chill: 28°   Ceiling: 12000
Heat Index: 34°   Visibility: 10mi
Dew Point: 27°   Wind: 7mph
Humidity: 75%   Direction: 150°SSE
Pressure: 30.17"   Gusts: NA
Location:  37.54°N, 113.18°W
Report Text: KCDC 200353Z AUTO 15006KT 10SM BKN120 01/M03 A3017 RMK AO2 SLP230 T00111028
Loading
Personal Weather Stations






























Interactive Weather Map New forecast layout! Learn more

10-Day Weather Forecast

Advertisements
Track Severe Weather on mobile